sensor_id;sensor_type;location;lat;lon;timestamp;P1;durP1;ratioP1;P2;durP2;ratioP2
43529;SDS011;55654;50.966;6.878;2023-02-01T00:01:35;17.17;;;7.83;;
43529;SDS011;55654;50.966;6.878;2023-02-01T00:04:01;28.53;;;9.43;;
43529;SDS011;55654;50.966;6.878;2023-02-01T00:06:28;33.27;;;9.63;;
43529;SDS011;55654;50.966;6.878;2023-02-01T00:08:54;22.60;;;9.23;;
43529;SDS011;55654;50.966;6.878;2023-02-01T00:11:20;18.23;;;8.97;;
43529;SDS011;55654;50.966;6.878;2023-02-01T00:13:48;26.37;;;8.67;;
43529;SDS011;55654;50.966;6.878;2023-02-01T00:16:18;25.47;;;8.87;;
43529;SDS011;55654;50.966;6.878;2023-02-01T00:18:45;23.60;;;8.10;;
43529;SDS011;55654;50.966;6.878;2023-02-01T00:21:12;24.13;;;7.97;;
43529;SDS011;55654;50.966;6.878;2023-02-01T00:23:40;24.80;;;7.57;;
43529;SDS011;55654;50.966;6.878;2023-02-01T00:26:09;19.77;;;7.27;;
43529;SDS011;55654;50.966;6.878;2023-02-01T00:28:36;27.90;;;6.80;;
43529;SDS011;55654;50.966;6.878;2023-02-01T00:31:03;20.07;;;6.93;;
43529;SDS011;55654;50.966;6.878;2023-02-01T00:33:29;16.87;;;6.43;;
43529;SDS011;55654;50.966;6.878;2023-02-01T00:35:58;18.13;;;6.13;;
43529;SDS011;55654;50.966;6.878;2023-02-01T00:38:25;20.00;;;6.23;;
43529;SDS011;55654;50.966;6.878;2023-02-01T00:40:51;21.47;;;6.70;;
43529;SDS011;55654;50.966;6.878;2023-02-01T00:43:17;19.60;;;5.40;;
43529;SDS011;55654;50.966;6.878;2023-02-01T00:45:43;14.97;;;6.60;;
43529;SDS011;55654;50.966;6.878;2023-02-01T00:48:10;20.23;;;5.53;;
43529;SDS011;55654;50.966;6.878;2023-02-01T00:50:40;23.67;;;6.97;;
43529;SDS011;55654;50.966;6.878;2023-02-01T00:53:06;17.30;;;4.83;;
43529;SDS011;55654;50.966;6.878;2023-02-01T00:55:32;18.83;;;5.07;;
43529;SDS011;55654;50.966;6.878;2023-02-01T00:57:58;23.73;;;5.80;;
43529;SDS011;55654;50.966;6.878;2023-02-01T01:00:24;21.30;;;4.83;;
43529;SDS011;55654;50.966;6.878;2023-02-01T01:02:53;24.20;;;6.10;;
43529;SDS011;55654;50.966;6.878;2023-02-01T01:05:19;18.07;;;5.33;;
43529;SDS011;55654;50.966;6.878;2023-02-01T01:07:45;20.77;;;5.20;;
43529;SDS011;55654;50.966;6.878;2023-02-01T01:10:11;15.63;;;4.13;;
43529;SDS011;55654;50.966;6.878;2023-02-01T01:12:37;21.80;;;4.37;;
43529;SDS011;55654;50.966;6.878;2023-02-01T01:15:03;22.13;;;4.77;;
43529;SDS011;55654;50.966;6.878;2023-02-01T01:17:30;20.67;;;4.40;;
43529;SDS011;55654;50.966;6.878;2023-02-01T01:19:56;23.00;;;4.30;;
43529;SDS011;55654;50.966;6.878;2023-02-01T01:22:25;17.47;;;4.03;;
43529;SDS011;55654;50.966;6.878;2023-02-01T01:24:51;27.33;;;5.03;;
43529;SDS011;55654;50.966;6.878;2023-02-01T01:27:17;16.80;;;4.13;;
43529;SDS011;55654;50.966;6.878;2023-02-01T01:29:49;14.30;;;5.10;;
43529;SDS011;55654;50.966;6.878;2023-02-01T01:32:15;12.30;;;3.20;;
43529;SDS011;55654;50.966;6.878;2023-02-01T01:34:41;22.30;;;5.03;;
43529;SDS011;55654;50.966;6.878;2023-02-01T01:37:09;18.50;;;4.83;;
43529;SDS011;55654;50.966;6.878;2023-02-01T01:39:35;17.67;;;4.33;;
43529;SDS011;55654;50.966;6.878;2023-02-01T01:42:01;23.53;;;3.83;;
43529;SDS011;55654;50.966;6.878;2023-02-01T01:47:12;15.77;;;4.37;;
43529;SDS011;55654;50.966;6.878;2023-02-01T01:49:39;16.00;;;3.70;;
43529;SDS011;55654;50.966;6.878;2023-02-01T01:52:05;25.53;;;4.03;;
43529;SDS011;55654;50.966;6.878;2023-02-01T01:54:33;23.57;;;4.90;;
43529;SDS011;55654;50.966;6.878;2023-02-01T01:57:02;16.07;;;4.30;;
43529;SDS011;55654;50.966;6.878;2023-02-01T01:59:29;17.40;;;4.90;;
43529;SDS011;55654;50.966;6.878;2023-02-01T02:01:57;16.67;;;4.30;;
43529;SDS011;55654;50.966;6.878;2023-02-01T02:04:23;17.47;;;3.73;;
43529;SDS011;55654;50.966;6.878;2023-02-01T02:09:15;16.30;;;4.47;;
43529;SDS011;55654;50.966;6.878;2023-02-01T02:11:41;20.00;;;3.23;;
43529;SDS011;55654;50.966;6.878;2023-02-01T02:14:08;17.17;;;3.57;;
43529;SDS011;55654;50.966;6.878;2023-02-01T02:27:03;21.97;;;4.00;;
43529;SDS011;55654;50.966;6.878;2023-02-01T02:34:46;23.40;;;4.67;;
43529;SDS011;55654;50.966;6.878;2023-02-01T02:40:17;23.70;;;4.90;;
43529;SDS011;55654;50.966;6.878;2023-02-01T02:45:41;19.10;;;4.90;;
43529;SDS011;55654;50.966;6.878;2023-02-01T02:48:34;24.43;;;4.53;;
43529;SDS011;55654;50.966;6.878;2023-02-01T02:51:09;19.07;;;5.50;;
43529;SDS011;55654;50.966;6.878;2023-02-01T02:54:02;20.33;;;5.88;;
43529;SDS011;55654;50.966;6.878;2023-02-01T02:56:51;18.73;;;5.00;;
43529;SDS011;55654;50.966;6.878;2023-02-01T02:59:37;24.60;;;5.93;;
43529;SDS011;55654;50.966;6.878;2023-02-01T03:02:22;20.87;;;5.53;;
43529;SDS011;55654;50.966;6.878;2023-02-01T03:05:07;27.07;;;6.63;;
43529;SDS011;55654;50.966;6.878;2023-02-01T03:07:49;27.77;;;6.30;;
43529;SDS011;55654;50.966;6.878;2023-02-01T03:10:40;26.30;;;5.87;;
43529;SDS011;55654;50.966;6.878;2023-02-01T03:13:11;24.03;;;6.23;;
43529;SDS011;55654;50.966;6.878;2023-02-01T03:15:42;23.30;;;5.73;;
43529;SDS011;55654;50.966;6.878;2023-02-01T03:18:16;22.33;;;6.27;;
43529;SDS011;55654;50.966;6.878;2023-02-01T03:20:44;23.07;;;6.17;;
43529;SDS011;55654;50.966;6.878;2023-02-01T03:23:12;23.40;;;5.13;;
43529;SDS011;55654;50.966;6.878;2023-02-01T03:25:40;21.00;;;6.30;;
43529;SDS011;55654;50.966;6.878;2023-02-01T03:28:08;20.60;;;5.30;;
43529;SDS011;55654;50.966;6.878;2023-02-01T03:30:35;30.03;;;7.43;;
43529;SDS011;55654;50.966;6.878;2023-02-01T03:33:03;19.07;;;4.93;;
43529;SDS011;55654;50.966;6.878;2023-02-01T03:38:07;22.55;;;4.55;;
43529;SDS011;55654;50.966;6.878;2023-02-01T03:40:36;16.80;;;5.43;;
43529;SDS011;55654;50.966;6.878;2023-02-01T03:43:04;19.97;;;4.97;;
43529;SDS011;55654;50.966;6.878;2023-02-01T03:45:36;22.27;;;5.03;;
43529;SDS011;55654;50.966;6.878;2023-02-01T03:48:05;24.57;;;6.40;;
43529;SDS011;55654;50.966;6.878;2023-02-01T03:50:32;18.97;;;5.17;;
43529;SDS011;55654;50.966;6.878;2023-02-01T03:53:01;25.73;;;7.20;;
43529;SDS011;55654;50.966;6.878;2023-02-01T03:55:28;18.97;;;4.30;;
43529;SDS011;55654;50.966;6.878;2023-02-01T03:58:01;20.47;;;4.97;;
43529;SDS011;55654;50.966;6.878;2023-02-01T04:00:28;18.80;;;5.73;;
43529;SDS011;55654;50.966;6.878;2023-02-01T04:02:54;23.67;;;5.77;;
43529;SDS011;55654;50.966;6.878;2023-02-01T04:05:20;17.90;;;4.70;;
43529;SDS011;55654;50.966;6.878;2023-02-01T04:07:46;30.87;;;6.90;;
43529;SDS011;55654;50.966;6.878;2023-02-01T04:10:13;27.40;;;5.60;;
43529;SDS011;55654;50.966;6.878;2023-02-01T04:12:39;23.47;;;5.73;;
43529;SDS011;55654;50.966;6.878;2023-02-01T04:15:05;19.93;;;5.60;;
43529;SDS011;55654;50.966;6.878;2023-02-01T04:17:31;22.87;;;4.70;;
43529;SDS011;55654;50.966;6.878;2023-02-01T04:19:57;21.47;;;5.43;;
43529;SDS011;55654;50.966;6.878;2023-02-01T04:22:23;26.43;;;5.37;;
43529;SDS011;55654;50.966;6.878;2023-02-01T04:24:50;27.03;;;5.50;;
43529;SDS011;55654;50.966;6.878;2023-02-01T04:27:16;34.03;;;6.43;;
43529;SDS011;55654;50.966;6.878;2023-02-01T04:29:42;21.53;;;5.97;;
43529;SDS011;55654;50.966;6.878;2023-02-01T04:32:10;24.50;;;4.83;;
43529;SDS011;55654;50.966;6.878;2023-02-01T04:34:36;27.00;;;5.77;;
43529;SDS011;55654;50.966;6.878;2023-02-01T04:37:02;27.97;;;5.23;;
43529;SDS011;55654;50.966;6.878;2023-02-01T04:39:28;11.43;;;3.97;;
43529;SDS011;55654;50.966;6.878;2023-02-01T04:41:54;24.67;;;5.07;;
43529;SDS011;55654;50.966;6.878;2023-02-01T04:44:20;15.57;;;4.87;;
43529;SDS011;55654;50.966;6.878;2023-02-01T04:46:46;29.63;;;5.57;;
43529;SDS011;55654;50.966;6.878;2023-02-01T04:49:15;20.80;;;5.27;;
43529;SDS011;55654;50.966;6.878;2023-02-01T04:51:41;18.73;;;4.30;;
43529;SDS011;55654;50.966;6.878;2023-02-01T04:54:07;21.80;;;5.33;;
43529;SDS011;55654;50.966;6.878;2023-02-01T04:56:33;17.43;;;4.47;;
43529;SDS011;55654;50.966;6.878;2023-02-01T04:59:03;18.53;;;4.90;;
43529;SDS011;55654;50.966;6.878;2023-02-01T05:01:29;23.63;;;4.70;;
43529;SDS011;55654;50.966;6.878;2023-02-01T05:03:55;17.53;;;3.67;;
43529;SDS011;55654;50.966;6.878;2023-02-01T05:06:21;21.73;;;5.90;;
43529;SDS011;55654;50.966;6.878;2023-02-01T05:08:47;25.33;;;6.27;;
43529;SDS011;55654;50.966;6.878;2023-02-01T05:11:15;28.20;;;5.40;;
43529;SDS011;55654;50.966;6.878;2023-02-01T05:14:04;19.53;;;4.40;;
43529;SDS011;55654;50.966;6.878;2023-02-01T05:16:30;24.33;;;4.33;;
43529;SDS011;55654;50.966;6.878;2023-02-01T05:18:56;31.50;;;5.60;;
43529;SDS011;55654;50.966;6.878;2023-02-01T05:21:22;22.43;;;4.47;;
43529;SDS011;55654;50.966;6.878;2023-02-01T05:23:48;20.73;;;4.00;;
43529;SDS011;55654;50.966;6.878;2023-02-01T05:26:33;24.63;;;4.43;;
43529;SDS011;55654;50.966;6.878;2023-02-01T05:29:01;24.10;;;4.60;;
43529;SDS011;55654;50.966;6.878;2023-02-01T05:31:27;19.07;;;4.20;;
43529;SDS011;55654;50.966;6.878;2023-02-01T05:33:53;22.60;;;4.23;;
43529;SDS011;55654;50.966;6.878;2023-02-01T05:36:19;21.57;;;4.40;;
43529;SDS011;55654;50.966;6.878;2023-02-01T05:38:45;26.67;;;3.67;;
43529;SDS011;55654;50.966;6.878;2023-02-01T05:41:11;18.30;;;3.70;;
43529;SDS011;55654;50.966;6.878;2023-02-01T05:43:37;29.50;;;4.97;;
43529;SDS011;55654;50.966;6.878;2023-02-01T05:46:03;26.73;;;4.23;;
43529;SDS011;55654;50.966;6.878;2023-02-01T05:48:29;22.43;;;4.20;;
43529;SDS011;55654;50.966;6.878;2023-02-01T05:50:55;16.97;;;4.03;;
43529;SDS011;55654;50.966;6.878;2023-02-01T05:53:21;21.23;;;4.63;;
43529;SDS011;55654;50.966;6.878;2023-02-01T05:55:47;18.77;;;4.30;;
43529;SDS011;55654;50.966;6.878;2023-02-01T05:58:13;27.00;;;4.40;;
43529;SDS011;55654;50.966;6.878;2023-02-01T06:00:39;24.77;;;4.20;;
43529;SDS011;55654;50.966;6.878;2023-02-01T06:03:05;26.93;;;4.70;;
43529;SDS011;55654;50.966;6.878;2023-02-01T06:05:32;22.43;;;4.17;;
43529;SDS011;55654;50.966;6.878;2023-02-01T06:07:57;25.10;;;5.87;;
43529;SDS011;55654;50.966;6.878;2023-02-01T06:10:24;21.70;;;3.93;;
43529;SDS011;55654;50.966;6.878;2023-02-01T06:12:50;26.57;;;4.20;;
43529;SDS011;55654;50.966;6.878;2023-02-01T06:15:18;23.90;;;5.47;;
43529;SDS011;55654;50.966;6.878;2023-02-01T06:17:45;19.67;;;3.77;;
43529;SDS011;55654;50.966;6.878;2023-02-01T06:20:11;23.67;;;4.50;;
43529;SDS011;55654;50.966;6.878;2023-02-01T06:22:38;26.83;;;5.43;;
43529;SDS011;55654;50.966;6.878;2023-02-01T06:25:04;22.97;;;4.57;;
43529;SDS011;55654;50.966;6.878;2023-02-01T06:27:33;25.00;;;4.60;;
43529;SDS011;55654;50.966;6.878;2023-02-01T06:30:03;20.30;;;3.37;;
43529;SDS011;55654;50.966;6.878;2023-02-01T06:32:29;22.53;;;4.37;;
43529;SDS011;55654;50.966;6.878;2023-02-01T06:34:55;23.10;;;4.67;;
43529;SDS011;55654;50.966;6.878;2023-02-01T06:37:22;23.47;;;4.43;;
43529;SDS011;55654;50.966;6.878;2023-02-01T06:39:49;20.27;;;4.50;;
43529;SDS011;55654;50.966;6.878;2023-02-01T06:42:15;21.93;;;4.43;;
43529;SDS011;55654;50.966;6.878;2023-02-01T06:44:41;34.23;;;4.83;;
43529;SDS011;55654;50.966;6.878;2023-02-01T06:47:07;22.93;;;4.53;;
43529;SDS011;55654;50.966;6.878;2023-02-01T06:49:36;23.43;;;4.23;;
43529;SDS011;55654;50.966;6.878;2023-02-01T06:52:02;13.97;;;3.30;;
43529;SDS011;55654;50.966;6.878;2023-02-01T06:54:28;20.83;;;4.30;;
43529;SDS011;55654;50.966;6.878;2023-02-01T06:56:57;26.97;;;3.97;;
43529;SDS011;55654;50.966;6.878;2023-02-01T06:59:23;17.23;;;3.30;;
43529;SDS011;55654;50.966;6.878;2023-02-01T07:01:49;28.33;;;4.17;;
43529;SDS011;55654;50.966;6.878;2023-02-01T07:04:15;32.47;;;4.50;;
43529;SDS011;55654;50.966;6.878;2023-02-01T07:06:41;30.10;;;4.43;;
43529;SDS011;55654;50.966;6.878;2023-02-01T07:09:07;16.13;;;3.47;;
43529;SDS011;55654;50.966;6.878;2023-02-01T07:11:33;30.13;;;4.77;;
43529;SDS011;55654;50.966;6.878;2023-02-01T07:13:59;26.70;;;4.87;;
43529;SDS011;55654;50.966;6.878;2023-02-01T07:16:25;19.77;;;4.83;;
43529;SDS011;55654;50.966;6.878;2023-02-01T07:18:51;23.73;;;5.00;;
43529;SDS011;55654;50.966;6.878;2023-02-01T07:21:20;24.90;;;4.00;;
43529;SDS011;55654;50.966;6.878;2023-02-01T07:23:46;26.80;;;5.23;;
43529;SDS011;55654;50.966;6.878;2023-02-01T07:26:12;19.97;;;3.63;;
43529;SDS011;55654;50.966;6.878;2023-02-01T07:28:39;20.37;;;4.57;;
43529;SDS011;55654;50.966;6.878;2023-02-01T07:31:06;19.03;;;4.07;;
43529;SDS011;55654;50.966;6.878;2023-02-01T07:33:32;16.53;;;3.70;;
43529;SDS011;55654;50.966;6.878;2023-02-01T07:36:00;25.37;;;4.47;;
43529;SDS011;55654;50.966;6.878;2023-02-01T07:38:26;24.10;;;4.47;;
43529;SDS011;55654;50.966;6.878;2023-02-01T07:40:56;22.47;;;4.17;;
43529;SDS011;55654;50.966;6.878;2023-02-01T07:43:23;32.57;;;4.70;;
43529;SDS011;55654;50.966;6.878;2023-02-01T07:45:52;17.30;;;4.53;;
43529;SDS011;55654;50.966;6.878;2023-02-01T07:48:18;21.70;;;4.60;;
43529;SDS011;55654;50.966;6.878;2023-02-01T07:50:44;17.93;;;4.17;;
43529;SDS011;55654;50.966;6.878;2023-02-01T07:53:17;23.17;;;5.50;;
43529;SDS011;55654;50.966;6.878;2023-02-01T07:55:43;19.20;;;4.18;;
43529;SDS011;55654;50.966;6.878;2023-02-01T07:58:11;18.77;;;4.73;;
43529;SDS011;55654;50.966;6.878;2023-02-01T08:00:37;17.00;;;3.50;;
43529;SDS011;55654;50.966;6.878;2023-02-01T08:03:24;26.47;;;4.40;;
43529;SDS011;55654;50.966;6.878;2023-02-01T08:05:54;22.33;;;4.70;;
43529;SDS011;55654;50.966;6.878;2023-02-01T08:08:20;23.27;;;6.57;;
43529;SDS011;55654;50.966;6.878;2023-02-01T08:10:46;26.87;;;4.30;;
43529;SDS011;55654;50.966;6.878;2023-02-01T08:13:12;29.20;;;4.93;;
43529;SDS011;55654;50.966;6.878;2023-02-01T08:15:38;31.13;;;5.57;;
43529;SDS011;55654;50.966;6.878;2023-02-01T08:18:04;23.03;;;4.70;;
43529;SDS011;55654;50.966;6.878;2023-02-01T08:20:30;26.47;;;4.50;;
43529;SDS011;55654;50.966;6.878;2023-02-01T08:22:56;31.47;;;5.23;;
43529;SDS011;55654;50.966;6.878;2023-02-01T08:25:23;27.70;;;4.30;;
43529;SDS011;55654;50.966;6.878;2023-02-01T08:27:49;20.80;;;3.83;;
43529;SDS011;55654;50.966;6.878;2023-02-01T08:30:15;24.03;;;4.60;;
43529;SDS011;55654;50.966;6.878;2023-02-01T08:32:41;26.50;;;4.60;;
43529;SDS011;55654;50.966;6.878;2023-02-01T08:35:10;21.17;;;4.57;;
43529;SDS011;55654;50.966;6.878;2023-02-01T08:37:36;32.07;;;4.50;;
43529;SDS011;55654;50.966;6.878;2023-02-01T08:40:02;21.00;;;3.77;;
43529;SDS011;55654;50.966;6.878;2023-02-01T08:42:28;32.40;;;4.00;;
43529;SDS011;55654;50.966;6.878;2023-02-01T08:45:13;25.07;;;5.37;;
43529;SDS011;55654;50.966;6.878;2023-02-01T08:47:39;19.83;;;4.47;;
43529;SDS011;55654;50.966;6.878;2023-02-01T08:50:05;24.03;;;4.70;;
43529;SDS011;55654;50.966;6.878;2023-02-01T08:52:31;27.43;;;5.10;;
43529;SDS011;55654;50.966;6.878;2023-02-01T08:54:57;21.00;;;3.87;;
43529;SDS011;55654;50.966;6.878;2023-02-01T08:57:23;19.30;;;4.33;;
43529;SDS011;55654;50.966;6.878;2023-02-01T08:59:49;33.67;;;5.70;;
43529;SDS011;55654;50.966;6.878;2023-02-01T09:02:16;19.03;;;4.37;;
43529;SDS011;55654;50.966;6.878;2023-02-01T09:04:42;20.53;;;4.47;;
43529;SDS011;55654;50.966;6.878;2023-02-01T09:07:09;22.47;;;4.77;;
43529;SDS011;55654;50.966;6.878;2023-02-01T09:09:35;23.37;;;3.20;;
43529;SDS011;55654;50.966;6.878;2023-02-01T09:12:02;19.70;;;3.67;;
43529;SDS011;55654;50.966;6.878;2023-02-01T09:14:28;22.17;;;4.67;;
43529;SDS011;55654;50.966;6.878;2023-02-01T09:16:54;27.03;;;4.30;;
43529;SDS011;55654;50.966;6.878;2023-02-01T09:19:20;18.93;;;4.07;;
43529;SDS011;55654;50.966;6.878;2023-02-01T09:21:46;25.23;;;4.13;;
43529;SDS011;55654;50.966;6.878;2023-02-01T09:24:13;18.27;;;4.00;;
43529;SDS011;55654;50.966;6.878;2023-02-01T09:26:45;23.60;;;4.80;;
43529;SDS011;55654;50.966;6.878;2023-02-01T09:29:11;23.58;;;4.00;;
43529;SDS011;55654;50.966;6.878;2023-02-01T09:31:38;17.23;;;3.73;;
43529;SDS011;55654;50.966;6.878;2023-02-01T09:34:04;27.60;;;4.67;;
43529;SDS011;55654;50.966;6.878;2023-02-01T09:36:30;25.43;;;5.00;;
43529;SDS011;55654;50.966;6.878;2023-02-01T09:38:59;29.40;;;5.33;;
43529;SDS011;55654;50.966;6.878;2023-02-01T09:46:53;19.73;;;3.77;;
43529;SDS011;55654;50.966;6.878;2023-02-01T09:49:27;23.87;;;4.27;;
43529;SDS011;55654;50.966;6.878;2023-02-01T09:54:24;19.57;;;3.83;;
43529;SDS011;55654;50.966;6.878;2023-02-01T09:56:55;23.67;;;3.67;;
43529;SDS011;55654;50.966;6.878;2023-02-01T10:01:55;18.80;;;3.53;;
43529;SDS011;55654;50.966;6.878;2023-02-01T10:04:22;22.27;;;5.23;;
43529;SDS011;55654;50.966;6.878;2023-02-01T10:06:51;28.90;;;4.93;;
43529;SDS011;55654;50.966;6.878;2023-02-01T10:09:24;24.33;;;3.85;;
43529;SDS011;55654;50.966;6.878;2023-02-01T10:19:33;24.75;;;4.72;;
43529;SDS011;55654;50.966;6.878;2023-02-01T10:22:31;26.87;;;5.07;;
43529;SDS011;55654;50.966;6.878;2023-02-01T10:24:58;20.13;;;4.03;;
43529;SDS011;55654;50.966;6.878;2023-02-01T10:27:32;18.97;;;3.50;;
43529;SDS011;55654;50.966;6.878;2023-02-01T10:32:32;14.87;;;3.13;;
43529;SDS011;55654;50.966;6.878;2023-02-01T10:35:07;21.93;;;3.53;;
43529;SDS011;55654;50.966;6.878;2023-02-01T10:37:34;14.00;;;3.53;;
43529;SDS011;55654;50.966;6.878;2023-02-01T10:40:11;22.53;;;3.43;;
43529;SDS011;55654;50.966;6.878;2023-02-01T10:42:38;18.20;;;3.10;;
43529;SDS011;55654;50.966;6.878;2023-02-01T10:45:11;17.80;;;3.83;;
43529;SDS011;55654;50.966;6.878;2023-02-01T10:47:40;18.47;;;3.27;;
43529;SDS011;55654;50.966;6.878;2023-02-01T10:52:57;25.60;;;4.03;;
43529;SDS011;55654;50.966;6.878;2023-02-01T10:58:04;16.50;;;3.70;;
43529;SDS011;55654;50.966;6.878;2023-02-01T11:00:40;15.10;;;3.90;;
43529;SDS011;55654;50.966;6.878;2023-02-01T11:05:55;24.83;;;4.17;;
43529;SDS011;55654;50.966;6.878;2023-02-01T11:08:21;22.83;;;3.83;;
43529;SDS011;55654;50.966;6.878;2023-02-01T11:10:47;11.57;;;3.73;;
43529;SDS011;55654;50.966;6.878;2023-02-01T11:13:17;18.23;;;3.90;;
43529;SDS011;55654;50.966;6.878;2023-02-01T11:15:44;23.50;;;4.03;;
43529;SDS011;55654;50.966;6.878;2023-02-01T11:18:18;17.53;;;4.20;;
43529;SDS011;55654;50.966;6.878;2023-02-01T11:20:44;32.93;;;4.90;;
43529;SDS011;55654;50.966;6.878;2023-02-01T11:23:15;23.60;;;3.70;;
43529;SDS011;55654;50.966;6.878;2023-02-01T11:28:35;22.98;;;4.60;;
43529;SDS011;55654;50.966;6.878;2023-02-01T11:31:05;27.77;;;4.93;;
43529;SDS011;55654;50.966;6.878;2023-02-01T11:33:34;28.73;;;4.37;;
43529;SDS011;55654;50.966;6.878;2023-02-01T11:36:12;21.83;;;3.80;;
43529;SDS011;55654;50.966;6.878;2023-02-01T11:38:53;14.87;;;3.50;;
43529;SDS011;55654;50.966;6.878;2023-02-01T11:41:26;19.60;;;4.13;;
43529;SDS011;55654;50.966;6.878;2023-02-01T11:43:59;22.87;;;4.03;;
43529;SDS011;55654;50.966;6.878;2023-02-01T11:46:29;18.00;;;3.43;;
43529;SDS011;55654;50.966;6.878;2023-02-01T11:48:56;23.00;;;4.07;;
43529;SDS011;55654;50.966;6.878;2023-02-01T12:09:14;24.63;;;4.40;;
43529;SDS011;55654;50.966;6.878;2023-02-01T12:29:34;17.40;;;3.23;;
43529;SDS011;55654;50.966;6.878;2023-02-01T12:42:24;20.53;;;4.20;;
43529;SDS011;55654;50.966;6.878;2023-02-01T12:47:24;14.10;;;3.43;;
43529;SDS011;55654;50.966;6.878;2023-02-01T12:50:00;18.37;;;4.23;;
43529;SDS011;55654;50.966;6.878;2023-02-01T12:52:34;19.97;;;3.77;;
43529;SDS011;55654;50.966;6.878;2023-02-01T12:55:03;19.63;;;4.23;;
43529;SDS011;55654;50.966;6.878;2023-02-01T12:57:32;20.57;;;4.13;;
43529;SDS011;55654;50.966;6.878;2023-02-01T13:00:02;22.67;;;3.90;;
43529;SDS011;55654;50.966;6.878;2023-02-01T13:05:17;15.27;;;3.53;;
43529;SDS011;55654;50.966;6.878;2023-02-01T13:12:56;21.57;;;4.37;;
43529;SDS011;55654;50.966;6.878;2023-02-01T13:17:53;20.57;;;3.43;;
43529;SDS011;55654;50.966;6.878;2023-02-01T13:20:30;14.20;;;3.07;;
43529;SDS011;55654;50.966;6.878;2023-02-01T13:22:59;13.57;;;3.57;;
43529;SDS011;55654;50.966;6.878;2023-02-01T13:25:37;21.80;;;3.57;;
43529;SDS011;55654;50.966;6.878;2023-02-01T13:28:20;20.40;;;3.00;;
43529;SDS011;55654;50.966;6.878;2023-02-01T13:33:49;14.90;;;3.17;;
43529;SDS011;55654;50.966;6.878;2023-02-01T13:36:30;14.00;;;3.03;;
43529;SDS011;55654;50.966;6.878;2023-02-01T13:41:57;20.50;;;3.23;;
43529;SDS011;55654;50.966;6.878;2023-02-01T13:44:26;14.40;;;2.90;;
43529;SDS011;55654;50.966;6.878;2023-02-01T13:46:57;12.97;;;2.40;;
43529;SDS011;55654;50.966;6.878;2023-02-01T13:49:28;14.63;;;3.30;;
43529;SDS011;55654;50.966;6.878;2023-02-01T13:51:56;20.13;;;3.23;;
43529;SDS011;55654;50.966;6.878;2023-02-01T13:54:33;17.83;;;3.47;;
43529;SDS011;55654;50.966;6.878;2023-02-01T14:02:48;18.27;;;3.50;;
43529;SDS011;55654;50.966;6.878;2023-02-01T14:13:20;15.00;;;2.90;;
43529;SDS011;55654;50.966;6.878;2023-02-01T14:16:10;16.43;;;3.60;;
43529;SDS011;55654;50.966;6.878;2023-02-01T14:23:42;16.00;;;3.60;;
43529;SDS011;55654;50.966;6.878;2023-02-01T14:26:09;16.77;;;3.37;;
43529;SDS011;55654;50.966;6.878;2023-02-01T14:28:39;13.37;;;2.90;;
43529;SDS011;55654;50.966;6.878;2023-02-01T14:34:10;18.53;;;2.70;;
43529;SDS011;55654;50.966;6.878;2023-02-01T14:36:41;15.93;;;2.90;;
43529;SDS011;55654;50.966;6.878;2023-02-01T14:39:18;15.53;;;2.70;;
43529;SDS011;55654;50.966;6.878;2023-02-01T14:41:44;13.27;;;3.00;;
43529;SDS011;55654;50.966;6.878;2023-02-01T14:44:21;18.00;;;3.10;;
43529;SDS011;55654;50.966;6.878;2023-02-01T14:49:46;27.10;;;4.10;;
43529;SDS011;55654;50.966;6.878;2023-02-01T14:52:14;17.40;;;3.67;;
43529;SDS011;55654;50.966;6.878;2023-02-01T14:54:41;14.50;;;2.83;;
43529;SDS011;55654;50.966;6.878;2023-02-01T14:57:13;17.80;;;3.10;;
43529;SDS011;55654;50.966;6.878;2023-02-01T14:59:39;18.80;;;3.57;;
43529;SDS011;55654;50.966;6.878;2023-02-01T15:02:16;18.77;;;3.87;;
43529;SDS011;55654;50.966;6.878;2023-02-01T15:04:43;15.40;;;3.10;;
43529;SDS011;55654;50.966;6.878;2023-02-01T15:07:11;12.47;;;2.97;;
43529;SDS011;55654;50.966;6.878;2023-02-01T15:09:45;13.87;;;2.97;;
43529;SDS011;55654;50.966;6.878;2023-02-01T15:17:26;12.63;;;2.67;;
43529;SDS011;55654;50.966;6.878;2023-02-01T15:19:59;13.13;;;2.73;;
43529;SDS011;55654;50.966;6.878;2023-02-01T15:22:26;11.33;;;2.30;;
43529;SDS011;55654;50.966;6.878;2023-02-01T15:24:53;11.23;;;2.97;;
43529;SDS011;55654;50.966;6.878;2023-02-01T15:27:22;19.13;;;2.93;;
43529;SDS011;55654;50.966;6.878;2023-02-01T15:29:48;14.43;;;2.90;;
43529;SDS011;55654;50.966;6.878;2023-02-01T15:34:58;11.47;;;3.00;;
43529;SDS011;55654;50.966;6.878;2023-02-01T15:37:25;15.93;;;3.00;;
43529;SDS011;55654;50.966;6.878;2023-02-01T15:42:32;14.47;;;3.33;;
43529;SDS011;55654;50.966;6.878;2023-02-01T15:44:58;16.83;;;2.83;;
43529;SDS011;55654;50.966;6.878;2023-02-01T15:47:25;14.30;;;2.60;;
43529;SDS011;55654;50.966;6.878;2023-02-01T15:49:55;11.23;;;2.73;;
43529;SDS011;55654;50.966;6.878;2023-02-01T15:54:48;19.20;;;4.37;;
43529;SDS011;55654;50.966;6.878;2023-02-01T15:57:34;12.37;;;2.57;;
43529;SDS011;55654;50.966;6.878;2023-02-01T16:00:08;15.40;;;2.53;;
43529;SDS011;55654;50.966;6.878;2023-02-01T16:02:52;19.27;;;4.93;;
43529;SDS011;55654;50.966;6.878;2023-02-01T16:08:03;19.00;;;3.27;;
43529;SDS011;55654;50.966;6.878;2023-02-01T16:10:30;15.30;;;3.65;;
43529;SDS011;55654;50.966;6.878;2023-02-01T16:12:57;11.73;;;2.63;;
43529;SDS011;55654;50.966;6.878;2023-02-01T16:15:25;18.70;;;3.23;;
43529;SDS011;55654;50.966;6.878;2023-02-01T16:18:00;12.53;;;2.57;;
43529;SDS011;55654;50.966;6.878;2023-02-01T16:20:26;13.05;;;2.25;;
43529;SDS011;55654;50.966;6.878;2023-02-01T16:22:52;14.20;;;3.10;;
43529;SDS011;55654;50.966;6.878;2023-02-01T16:25:21;14.37;;;2.20;;
43529;SDS011;55654;50.966;6.878;2023-02-01T16:27:47;17.27;;;3.27;;
43529;SDS011;55654;50.966;6.878;2023-02-01T16:30:13;20.63;;;3.53;;
43529;SDS011;55654;50.966;6.878;2023-02-01T16:32:39;19.03;;;4.30;;
43529;SDS011;55654;50.966;6.878;2023-02-01T16:35:22;16.37;;;3.30;;
43529;SDS011;55654;50.966;6.878;2023-02-01T16:37:48;22.87;;;3.87;;
43529;SDS011;55654;50.966;6.878;2023-02-01T16:40:15;18.27;;;3.73;;
43529;SDS011;55654;50.966;6.878;2023-02-01T16:42:41;13.97;;;2.17;;
43529;SDS011;55654;50.966;6.878;2023-02-01T16:45:08;11.57;;;3.07;;
43529;SDS011;55654;50.966;6.878;2023-02-01T16:47:35;15.23;;;3.27;;
43529;SDS011;55654;50.966;6.878;2023-02-01T16:50:02;14.50;;;3.00;;
43529;SDS011;55654;50.966;6.878;2023-02-01T16:52:28;18.07;;;3.23;;
43529;SDS011;55654;50.966;6.878;2023-02-01T16:54:54;9.73;;;2.70;;
43529;SDS011;55654;50.966;6.878;2023-02-01T16:57:22;21.57;;;4.40;;
43529;SDS011;55654;50.966;6.878;2023-02-01T16:59:48;22.27;;;3.83;;
43529;SDS011;55654;50.966;6.878;2023-02-01T17:02:16;23.53;;;3.53;;
43529;SDS011;55654;50.966;6.878;2023-02-01T17:04:44;18.90;;;3.77;;
43529;SDS011;55654;50.966;6.878;2023-02-01T17:07:19;20.63;;;4.70;;
43529;SDS011;55654;50.966;6.878;2023-02-01T17:09:54;15.47;;;3.53;;
43529;SDS011;55654;50.966;6.878;2023-02-01T17:12:24;14.27;;;3.17;;
43529;SDS011;55654;50.966;6.878;2023-02-01T17:14:51;22.30;;;3.90;;
43529;SDS011;55654;50.966;6.878;2023-02-01T17:17:17;18.77;;;3.23;;
43529;SDS011;55654;50.966;6.878;2023-02-01T17:19:44;17.87;;;3.57;;
43529;SDS011;55654;50.966;6.878;2023-02-01T17:22:17;12.73;;;2.53;;
43529;SDS011;55654;50.966;6.878;2023-02-01T17:24:45;22.33;;;4.17;;
43529;SDS011;55654;50.966;6.878;2023-02-01T17:27:11;14.33;;;4.27;;
43529;SDS011;55654;50.966;6.878;2023-02-01T17:29:37;23.40;;;3.80;;